Big Bear Station Historical Data
Daily Summary for January 15, 2019 Units:  Metric    English   Both
Next Day »
Daily Weekly Monthly Yearly Custom
  High: Low: Average:
Temperature: 1.9 °C -2 °C -0.3 °C
Dew Point: 0.3 °C -3.3 °C -1.2 °C
Humidity: 98% 86% 94%
Wind Speed: 10.9km/h 0km/h 1.3km/h
Wind Gust: -1607.7km/h - -
Wind- - SW
Pressure: 795.4 hPa 790.6 hPa -
Precipitation: 5.59 mm    
Historical Graphs
 
 
Tabular Data for January 15, 2019
Time Temperature Dew Point Pressure Wind Wind Speed Wind Gust Humidity Rainfall Rate (Hourly)
00:07 0.7 °C 0.3 °C 791.3 hPa South 3.5 km/h -1607.7 km/h 97% 0 mm
00:22 0.6 °C 0.3 °C 791 hPa West 1.8 km/h -1607.7 km/h 98% 0 mm
00:37 0.4 °C 0.1 °C 791.3 hPa NNW 5.1 km/h -1607.7 km/h 98% 0 mm
00:53 0.4 °C 0.1 °C 791 hPa NNW 1.8 km/h -1607.7 km/h 98% 0 mm
01:09 0.2 °C -0.2 °C 791.3 hPa South 10.9 km/h -1607.7 km/h 97% 0 mm
01:24 0 °C -0.6 °C 791.3 hPa SSE 4.3 km/h -1607.7 km/h 96% 0 mm
01:41 0.1 °C -0.4 °C 791.6 hPa SE 6.8 km/h -1607.7 km/h 96% 0 mm
01:56 0.1 °C -0.6 °C 791.6 hPa Calm   -1607.7 km/h 95% 0 mm
02:13 0.1 °C -0.7 °C 791.6 hPa SSE 3.5 km/h -1607.7 km/h 94% 0 mm
02:28 0 °C -0.8 °C 791.6 hPa Calm   -1607.7 km/h 94% 0 mm
02:43 -0.3 °C -1.1 °C 791.6 hPa SSW 4.3 km/h -1607.7 km/h 94% 0 mm
03:00 -0.4 °C -1.2 °C 791.3 hPa Calm   -1607.7 km/h 94% 0 mm
03:16 -0.6 °C -1.6 °C 791.3 hPa Calm   -1607.7 km/h 93% 0 mm
03:31 -0.9 °C -1.7 °C 791.3 hPa Calm   -1607.7 km/h 94% 0 mm
03:46 -1.2 °C -1.9 °C 791.3 hPa Calm   -1607.7 km/h 95% 0 mm
04:01 -1.3 °C -2 °C 791 hPa Calm   -1607.7 km/h 95% 0 mm
04:16 -1.4 °C -2.1 °C 791 hPa Calm   -1607.7 km/h 95% 0 mm
04:32 -1.6 °C -2.3 °C 791 hPa Calm   -1607.7 km/h 95% 0 mm
04:47 -1.7 °C -2.4 °C 791 hPa Calm   -1607.7 km/h 95% 0 mm
05:02 -1.8 °C -2.5 °C 790.6 hPa Calm   -1607.7 km/h 95% 0 mm
05:17 -1.8 °C -2.5 °C 790.6 hPa Calm   -1607.7 km/h 95% 0 mm
05:32 -1.9 °C -3.2 °C 791 hPa Calm   -1607.7 km/h 91% 0 mm
05:48 -1.8 °C -3.1 °C 791.3 hPa Calm   -1607.7 km/h 91% 0 mm
06:03 -2 °C -3.1 °C 791.3 hPa Calm   -1607.7 km/h 92% 0 mm
06:18 -1.7 °C -2.8 °C 791.6 hPa Calm   -1607.7 km/h 92% 0 mm
06:33 -1.6 °C -3.2 °C 791.6 hPa South 4.3 km/h -1607.7 km/h 89% 0 mm
06:49 -1.7 °C -3.3 °C 791.6 hPa Calm   -1607.7 km/h 89% 0 mm
07:04 -1.9 °C -3.3 °C 791.6 hPa Calm   -1607.7 km/h 90% 0 mm
07:19 -2 °C -3.3 °C 791.6 hPa Calm   -1607.7 km/h 91% 0 mm
07:34 -1.9 °C -3.2 °C 791.6 hPa Calm   -1607.7 km/h 91% 0 mm
07:49 -1.9 °C -3 °C 791.6 hPa Calm   -1607.7 km/h 92% 0 mm
08:05 -1.6 °C -2.6 °C 791.6 hPa Calm   -1607.7 km/h 93% 0 mm
08:20 -1.5 °C -2.6 °C 791.6 hPa Calm   -1607.7 km/h 92% 0 mm
08:35 -1.3 °C -2.4 °C 791.6 hPa Calm   -1607.7 km/h 92% 0 mm
08:50 -1.1 °C -2.2 °C 791.6 hPa Calm   -1607.7 km/h 92% 0 mm
09:05 -0.9 °C -1.9 °C 792 hPa NNE 6 km/h -1607.7 km/h 93% 0 mm
09:21 -0.9 °C -1.9 °C 792 hPa Calm   -1607.7 km/h 93% 0 mm
09:36 -0.6 °C -1.6 °C 792 hPa Calm   -1607.7 km/h 93% 0 mm
09:53 -0.2 °C -1.2 °C 792.3 hPa NNW 4.3 km/h -1607.7 km/h 93% 0 mm
10:08 0 °C -1 °C 792.3 hPa NW 6.8 km/h -1607.7 km/h 93% 0 mm
10:23 0.4 °C -0.8 °C 792.3 hPa NNW 5.1 km/h -1607.7 km/h 92% 0 mm
10:38 0.7 °C -0.6 °C 792.3 hPa WNW 6 km/h -1607.7 km/h 91% 0 mm
10:53 0.6 °C -0.8 °C 792 hPa SSE 5.1 km/h -1607.7 km/h 90% 0 mm
11:09 1 °C -0.6 °C 792 hPa Calm   -1607.7 km/h 89% 0 mm
11:30 0.8 °C -0.8 °C 792 hPa SSW 3.5 km/h -1607.7 km/h 89% 0 mm
11:45 1.7 °C -0.1 °C 791.6 hPa NNW 6 km/h -1607.7 km/h 88% 0 mm
12:02 0.7 °C -1.1 °C 791.6 hPa NE 5.1 km/h -1607.7 km/h 88% 0 mm
12:17 1.9 °C -0.2 °C 791 hPa Calm   -1607.7 km/h 86% 0 mm
12:33 1.9 °C -0.2 °C 791 hPa Calm   -1607.7 km/h 86% 0 mm
12:48 1.9 °C -0.1 °C 791 hPa NNE 1.8 km/h -1607.7 km/h 87% 0 mm
13:03 1 °C -0.8 °C 790.6 hPa WNW 9.3 km/h -1607.7 km/h 88% 0 mm
13:19 0.9 °C -0.6 °C 790.6 hPa Calm   -1607.7 km/h 90% 0 mm
13:35 0.3 °C -1 °C 790.6 hPa NW 6 km/h -1607.7 km/h 91% 0 mm
13:50 0.3 °C -1 °C 790.6 hPa Calm   -1607.7 km/h 91% 0 mm
14:07 0.7 °C -0.7 °C 790.6 hPa SSW 3.5 km/h -1607.7 km/h 90% 0 mm
14:24 0.4 °C -0.9 °C 790.6 hPa Calm   -1607.7 km/h 91% 0 mm
14:39 0.2 °C -0.9 °C 790.6 hPa NW 3.5 km/h -1607.7 km/h 92% 0 mm
14:57 0 °C -1 °C 791 hPa Calm   -1607.7 km/h 93% 0 mm
15:12 0.1 °C -0.9 °C 791 hPa Calm   -1607.7 km/h 93% 0 mm
15:28 -0.1 °C -1.1 °C 791 hPa Calm   -1607.7 km/h 93% 0 mm
15:45 -0.4 °C -1.4 °C 791 hPa Calm   -1607.7 km/h 93% 0 mm
16:01 -0.7 °C -1.7 °C 791 hPa WNW 1.8 km/h -1607.7 km/h 93% 0 mm
16:16 -0.8 °C -1.6 °C 791.3 hPa NE 1.8 km/h -1607.7 km/h 94% 0 mm
16:31 -0.7 °C -1.4 °C 791.3 hPa Calm   -1607.7 km/h 95% 0 mm
16:46 -0.8 °C -1.5 °C 791.3 hPa Calm   -1607.7 km/h 95% 0 mm
17:02 -0.6 °C -1.3 °C 791.3 hPa Calm   -1607.7 km/h 95% 0 mm
17:17 -1 °C -1.7 °C 791.6 hPa Calm   -1607.7 km/h 95% 0 mm
17:32 -1 °C -1.7 °C 791.6 hPa Calm   -1607.7 km/h 95% 0 mm
17:48 -1 °C -1.7 °C 791.3 hPa Calm   -1607.7 km/h 95% 0 mm
18:03 -0.9 °C -1.6 °C 791.6 hPa Calm   -1607.7 km/h 95% 0 mm
18:18 -0.8 °C -1.5 °C 792 hPa Calm   -1607.7 km/h 95% 0 mm
18:33 -0.8 °C -1.5 °C 792 hPa Calm   -1607.7 km/h 95% 0 mm
18:49 -0.6 °C -1.2 °C 792.3 hPa Calm   -1607.7 km/h 96% 0 mm
19:04 -0.5 °C -1.1 °C 792.7 hPa Calm   -1607.7 km/h 96% 0 mm
19:19 -0.2 °C -0.7 °C 792.7 hPa Calm   -1607.7 km/h 97% 0 mm
19:35 -0.2 °C -0.7 °C 792.7 hPa Calm   -1607.7 km/h 97% 0 mm
19:50 -0.2 °C -0.7 °C 792.3 hPa Calm   -1607.7 km/h 97% 0 mm
20:05 0 °C -0.4 °C 792.7 hPa Calm   -1607.7 km/h 97% 0 mm
20:20 0.1 °C -0.3 °C 792.7 hPa Calm   -1607.7 km/h 97% 0 mm
20:35 0.1 °C -0.3 °C 792.7 hPa Calm   -1607.7 km/h 97% 0 mm
20:51 0.1 °C -0.3 °C 793 hPa Calm   -1607.7 km/h 97% 0 mm
21:06 0.1 °C -0.3 °C 793.3 hPa Calm   -1607.7 km/h 97% 0 mm
21:21 0.1 °C -0.3 °C 793.3 hPa Calm   -1607.7 km/h 97% 0 mm
21:36 0.3 °C -0.2 °C 793.7 hPa Calm   -1607.7 km/h 97% 0 mm
21:51 0.2 °C -0.2 °C 794 hPa Calm   -1607.7 km/h 97% 0 mm
22:07 0.3 °C -0.2 °C 794.4 hPa Calm   -1607.7 km/h 97% 0 mm
22:22 0.5 °C 0.1 °C 794.4 hPa Calm   -1607.7 km/h 97% 0 mm
22:37 0.5 °C 0.1 °C 794.4 hPa Calm   -1607.7 km/h 97% 0 mm
22:52 0.4 °C -0.1 °C 795 hPa Calm   -1607.7 km/h 97% 0 mm
23:08 0.6 °C 0.2 °C 794.7 hPa Calm   -1607.7 km/h 97% 0 mm
23:23 0.6 °C 0.3 °C 795 hPa Calm   -1607.7 km/h 98% 0 mm
23:38 0.5 °C 0.2 °C 795.4 hPa Calm   -1607.7 km/h 98% 0 mm
23:53 0.5 °C 0.2 °C 795.4 hPa Calm   -1607.7 km/h 98% 0 mm
Big Bear CA Weather